Terminal Aerodrome Forecast
Issued by NWS Grand Forks, ND

Home | Current Version | Previous Version | Text Only | Print | Product List | Glossary On
Versions: 1 2 3 4 5 6 7 8 9 10 11 12 13 14 15 16 17 18 19 20
305
FTUS43 KFGF 051727
TAFFAR
TAF
KFAR 051727Z 0518/0618 07008KT P6SM OVC090
     FM052100 07007KT P6SM OVC010
      TEMPO 0521/0523 3/4SM -SN OVC003
     FM052300 07007KT 1 1/2SM -SN OVC008
     FM060000 28007KT 1 1/2SM -SN OVC008
     FM060900 27016KT 2SM -SN OVC010
     FM061200 28018G27KT 2SM -SN BLSN BKN010
     FM061600 29020G33KT 1 1/2SM -SN BLSN OVC025=

USA.gov is the U.S. government's official web portal to all federal, state and local government web resources and services.